sensor_id;sensor_type;location;lat;lon;timestamp;pressure;altitude;pressure_sealevel;temperature;humidity
29569;BME280;16501;51.462;14.346;2023-04-27T00:01:24;100427.28;;;3.85;78.48
29569;BME280;16501;51.462;14.346;2023-04-27T00:03:49;100408.78;;;3.78;77.72
29569;BME280;16501;51.462;14.346;2023-04-27T00:06:15;100413.47;;;3.82;77.60
29569;BME280;16501;51.462;14.346;2023-04-27T00:08:40;100391.56;;;3.64;77.43
29569;BME280;16501;51.462;14.346;2023-04-27T00:11:06;100410.03;;;3.74;77.45
29569;BME280;16501;51.462;14.346;2023-04-27T00:13:31;100378.25;;;3.55;77.67
29569;BME280;16501;51.462;14.346;2023-04-27T00:15:56;100400.16;;;3.73;77.29
29569;BME280;16501;51.462;14.346;2023-04-27T00:18:24;100400.16;;;3.73;77.54
29569;BME280;16501;51.462;14.346;2023-04-27T00:20:50;100407.59;;;3.76;78.27
29569;BME280;16501;51.462;14.346;2023-04-27T00:23:15;100413.63;;;3.71;78.14
29569;BME280;16501;51.462;14.346;2023-04-27T00:25:40;100399.78;;;3.71;78.11
29569;BME280;16501;51.462;14.346;2023-04-27T00:28:05;100401.34;;;3.72;78.08
29569;BME280;16501;51.462;14.346;2023-04-27T00:30:31;100401.78;;;3.70;78.77
29569;BME280;16501;51.462;14.346;2023-04-27T00:32:56;100371.28;;;3.47;78.73
29569;BME280;16501;51.462;14.346;2023-04-27T00:35:21;100387.38;;;3.55;78.79
29569;BME280;16501;51.462;14.346;2023-04-27T00:37:47;100396.13;;;3.54;79.20
29569;BME280;16501;51.462;14.346;2023-04-27T00:40:13;100404.19;;;3.68;79.96
29569;BME280;16501;51.462;14.346;2023-04-27T00:42:38;100399.59;;;3.58;79.33
29569;BME280;16501;51.462;14.346;2023-04-27T00:45:03;100403.84;;;3.66;79.14
29569;BME280;16501;51.462;14.346;2023-04-27T00:47:31;100412.09;;;3.70;79.40
29569;BME280;16501;51.462;14.346;2023-04-27T00:49:56;100400.38;;;3.58;79.53
29569;BME280;16501;51.462;14.346;2023-04-27T00:52:22;100379.16;;;3.48;79.78
29569;BME280;16501;51.462;14.346;2023-04-27T00:54:49;100409.31;;;3.70;79.95
29569;BME280;16501;51.462;14.346;2023-04-27T00:57:15;100383.97;;;3.44;80.38
29569;BME280;16501;51.462;14.346;2023-04-27T00:59:40;100416.06;;;3.69;80.69
29569;BME280;16501;51.462;14.346;2023-04-27T01:02:06;100406.72;;;3.59;80.05
29569;BME280;16501;51.462;14.346;2023-04-27T01:04:31;100421.72;;;3.62;81.85
29569;BME280;16501;51.462;14.346;2023-04-27T01:06:57;100421.72;;;3.62;82.42
29569;BME280;16501;51.462;14.346;2023-04-27T01:09:22;100410.94;;;3.44;83.62
29569;BME280;16501;51.462;14.346;2023-04-27T01:11:47;100416.28;;;3.54;83.85
29569;BME280;16501;51.462;14.346;2023-04-27T01:14:13;100401.78;;;3.47;84.42
29569;BME280;16501;51.462;14.346;2023-04-27T01:16:38;100413.09;;;3.56;84.76
29569;BME280;16501;51.462;14.346;2023-04-27T01:19:06;100413.88;;;3.56;84.68
29569;BME280;16501;51.462;14.346;2023-04-27T01:21:31;100410.28;;;3.59;85.10
29569;BME280;16501;51.462;14.346;2023-04-27T01:23:57;100421.53;;;3.72;85.77
29569;BME280;16501;51.462;14.346;2023-04-27T01:26:22;100431.09;;;3.71;86.70
29569;BME280;16501;51.462;14.346;2023-04-27T01:28:47;100421.31;;;3.63;86.62
29569;BME280;16501;51.462;14.346;2023-04-27T01:31:13;100422.75;;;3.71;87.54
29569;BME280;16501;51.462;14.346;2023-04-27T01:33:39;100428.31;;;3.71;87.66
29569;BME280;16501;51.462;14.346;2023-04-27T01:36:06;100410.63;;;3.62;88.53
29569;BME280;16501;51.462;14.346;2023-04-27T01:38:32;100412.63;;;3.61;88.79
29569;BME280;16501;51.462;14.346;2023-04-27T01:40:57;100433.44;;;3.73;87.89
29569;BME280;16501;51.462;14.346;2023-04-27T01:43:26;100423.72;;;3.61;88.18
29569;BME280;16501;51.462;14.346;2023-04-27T01:45:52;100430.72;;;3.69;87.59
29569;BME280;16501;51.462;14.346;2023-04-27T01:48:17;100426.50;;;3.61;87.35
29569;BME280;16501;51.462;14.346;2023-04-27T01:50:42;100443.00;;;3.68;87.46
29569;BME280;16501;51.462;14.346;2023-04-27T01:53:07;100420.25;;;3.53;87.54
29569;BME280;16501;51.462;14.346;2023-04-27T01:55:33;100390.38;;;3.41;87.64
29569;BME280;16501;51.462;14.346;2023-04-27T01:57:58;100409.97;;;3.54;88.34
29569;BME280;16501;51.462;14.346;2023-04-27T02:00:23;100421.66;;;3.65;88.35
29569;BME280;16501;51.462;14.346;2023-04-27T02:02:49;100424.13;;;3.59;88.31
29569;BME280;16501;51.462;14.346;2023-04-27T02:05:22;100448.13;;;3.70;88.19
29569;BME280;16501;51.462;14.346;2023-04-27T02:07:48;100450.44;;;3.75;88.60
29569;BME280;16501;51.462;14.346;2023-04-27T02:10:14;100450.50;;;3.71;88.79
29569;BME280;16501;51.462;14.346;2023-04-27T02:12:39;100452.94;;;3.66;88.84
29569;BME280;16501;51.462;14.346;2023-04-27T02:15:05;100458.00;;;3.71;89.12
29569;BME280;16501;51.462;14.346;2023-04-27T02:17:33;100447.09;;;3.60;89.18
29569;BME280;16501;51.462;14.346;2023-04-27T02:19:58;100448.69;;;3.61;89.89
29569;BME280;16501;51.462;14.346;2023-04-27T02:22:23;100453.38;;;3.64;90.61
29569;BME280;16501;51.462;14.346;2023-04-27T02:24:48;100460.47;;;3.65;89.60
29569;BME280;16501;51.462;14.346;2023-04-27T02:27:14;100451.81;;;3.63;89.95
29569;BME280;16501;51.462;14.346;2023-04-27T02:29:39;100462.47;;;3.65;89.06
29569;BME280;16501;51.462;14.346;2023-04-27T02:32:05;100463.78;;;3.56;88.48
29569;BME280;16501;51.462;14.346;2023-04-27T02:34:30;100449.22;;;3.52;88.74
29569;BME280;16501;51.462;14.346;2023-04-27T02:36:55;100463.78;;;3.56;88.54
29569;BME280;16501;51.462;14.346;2023-04-27T02:39:21;100436.34;;;3.38;88.13
29569;BME280;16501;51.462;14.346;2023-04-27T02:41:46;100444.66;;;3.38;88.04
29569;BME280;16501;51.462;14.346;2023-04-27T02:44:11;100433.28;;;3.33;88.26
29569;BME280;16501;51.462;14.346;2023-04-27T02:46:36;100432.81;;;3.38;88.07
29569;BME280;16501;51.462;14.346;2023-04-27T02:49:02;100420.25;;;3.30;88.08
29569;BME280;16501;51.462;14.346;2023-04-27T02:51:27;100448.50;;;3.45;88.17
29569;BME280;16501;51.462;14.346;2023-04-27T02:53:53;100441.13;;;3.38;87.96
29569;BME280;16501;51.462;14.346;2023-04-27T02:56:18;100441.94;;;3.35;87.33
29569;BME280;16501;51.462;14.346;2023-04-27T02:58:43;100460.03;;;3.43;87.51
29569;BME280;16501;51.462;14.346;2023-04-27T03:01:09;100441.31;;;3.24;86.85
29569;BME280;16501;51.462;14.346;2023-04-27T03:03:34;100441.25;;;3.27;86.42
29569;BME280;16501;51.462;14.346;2023-04-27T03:06:00;100462.81;;;3.43;86.69
29569;BME280;16501;51.462;14.346;2023-04-27T03:08:26;100456.28;;;3.30;87.26
29569;BME280;16501;51.462;14.346;2023-04-27T03:10:51;100429.50;;;3.19;87.00
29569;BME280;16501;51.462;14.346;2023-04-27T03:13:16;100458.53;;;3.38;86.87
29569;BME280;16501;51.462;14.346;2023-04-27T03:15:41;100466.38;;;3.44;87.09
29569;BME280;16501;51.462;14.346;2023-04-27T03:18:07;100467.16;;;3.44;86.64
29569;BME280;16501;51.462;14.346;2023-04-27T03:20:32;100470.38;;;3.39;87.29
29569;BME280;16501;51.462;14.346;2023-04-27T03:22:57;100455.09;;;3.27;87.18
29569;BME280;16501;51.462;14.346;2023-04-27T03:25:22;100469.19;;;3.40;87.12
29569;BME280;16501;51.462;14.346;2023-04-27T03:27:48;100469.56;;;3.42;87.53
29569;BME280;16501;51.462;14.346;2023-04-27T03:30:13;100467.34;;;3.30;87.62
29569;BME280;16501;51.462;14.346;2023-04-27T03:32:38;100477.63;;;3.33;88.34
29569;BME280;16501;51.462;14.346;2023-04-27T03:35:04;100482.59;;;3.45;88.85
29569;BME280;16501;51.462;14.346;2023-04-27T03:37:30;100497.59;;;3.48;88.97
29569;BME280;16501;51.462;14.346;2023-04-27T03:39:55;100471.22;;;3.36;89.28
29569;BME280;16501;51.462;14.346;2023-04-27T03:42:20;100482.25;;;3.39;89.85
29569;BME280;16501;51.462;14.346;2023-04-27T03:44:46;100485.41;;;3.42;89.89
29569;BME280;16501;51.462;14.346;2023-04-27T03:47:11;100493.56;;;3.52;90.31
29569;BME280;16501;51.462;14.346;2023-04-27T03:49:36;100462.22;;;3.28;90.92
29569;BME280;16501;51.462;14.346;2023-04-27T03:52:02;100472.84;;;3.33;91.25
29569;BME280;16501;51.462;14.346;2023-04-27T03:54:27;100503.06;;;3.51;91.81
29569;BME280;16501;51.462;14.346;2023-04-27T03:56:53;100501.88;;;3.52;91.71
29569;BME280;16501;51.462;14.346;2023-04-27T03:59:20;100488.91;;;3.46;91.56
29569;BME280;16501;51.462;14.346;2023-04-27T04:01:45;100520.00;;;3.57;92.05
29569;BME280;16501;51.462;14.346;2023-04-27T04:04:10;100510.16;;;3.56;91.70
29569;BME280;16501;51.462;14.346;2023-04-27T04:06:36;100478.81;;;3.32;91.87
29569;BME280;16501;51.462;14.346;2023-04-27T04:09:01;100510.91;;;3.56;91.83
29569;BME280;16501;51.462;14.346;2023-04-27T04:11:27;100512.88;;;3.59;91.46
29569;BME280;16501;51.462;14.346;2023-04-27T04:13:53;100518.88;;;3.54;90.77
29569;BME280;16501;51.462;14.346;2023-04-27T04:16:18;100527.97;;;3.55;90.56
29569;BME280;16501;51.462;14.346;2023-04-27T04:18:43;100518.50;;;3.52;89.91
29569;BME280;16501;51.462;14.346;2023-04-27T04:21:08;100516.25;;;3.44;89.65
29569;BME280;16501;51.462;14.346;2023-04-27T04:23:35;100523.69;;;3.50;90.13
29569;BME280;16501;51.462;14.346;2023-04-27T04:26:01;100520.50;;;3.52;89.50
29569;BME280;16501;51.462;14.346;2023-04-27T04:28:26;100535.81;;;3.60;89.72
29569;BME280;16501;51.462;14.346;2023-04-27T04:30:52;100539.88;;;3.55;89.57
29569;BME280;16501;51.462;14.346;2023-04-27T04:33:17;100537.28;;;3.68;89.79
29569;BME280;16501;51.462;14.346;2023-04-27T04:35:42;100535.78;;;3.64;89.71
29569;BME280;16501;51.462;14.346;2023-04-27T04:38:09;100544.38;;;3.73;89.93
29569;BME280;16501;51.462;14.346;2023-04-27T04:40:34;100538.44;;;3.71;89.71
29569;BME280;16501;51.462;14.346;2023-04-27T04:43:00;100517.75;;;3.52;90.23
29569;BME280;16501;51.462;14.346;2023-04-27T04:45:25;100536.09;;;3.69;89.67
29569;BME280;16501;51.462;14.346;2023-04-27T04:47:51;100531.03;;;3.64;90.19
29569;BME280;16501;51.462;14.346;2023-04-27T04:50:18;100548.28;;;3.75;89.45
29569;BME280;16501;51.462;14.346;2023-04-27T04:52:43;100559.38;;;3.75;88.14
29569;BME280;16501;51.462;14.346;2023-04-27T04:55:09;100573.28;;;3.72;87.83
29569;BME280;16501;51.462;14.346;2023-04-27T04:57:34;100558.25;;;3.73;88.44
29569;BME280;16501;51.462;14.346;2023-04-27T05:00:00;100558.59;;;3.75;88.20
29569;BME280;16501;51.462;14.346;2023-04-27T05:02:25;100546.75;;;3.71;87.62
29569;BME280;16501;51.462;14.346;2023-04-27T05:04:51;100555.94;;;3.68;87.93
29569;BME280;16501;51.462;14.346;2023-04-27T05:07:16;100553.09;;;3.71;87.72
29569;BME280;16501;51.462;14.346;2023-04-27T05:09:42;100560.25;;;3.69;87.31
29569;BME280;16501;51.462;14.346;2023-04-27T05:12:07;100546.81;;;3.67;87.48
29569;BME280;16501;51.462;14.346;2023-04-27T05:14:33;100565.66;;;3.80;86.98
29569;BME280;16501;51.462;14.346;2023-04-27T05:16:58;100567.16;;;3.84;87.17
29569;BME280;16501;51.462;14.346;2023-04-27T05:19:23;100538.44;;;3.71;86.97
29569;BME280;16501;51.462;14.346;2023-04-27T05:21:51;100572.63;;;3.91;85.83
29569;BME280;16501;51.462;14.346;2023-04-27T05:24:16;100574.91;;;3.96;86.67
29569;BME280;16501;51.462;14.346;2023-04-27T05:26:42;100567.59;;;3.83;86.46
29569;BME280;16501;51.462;14.346;2023-04-27T05:29:07;100576.13;;;3.95;86.45
29569;BME280;16501;51.462;14.346;2023-04-27T05:31:33;100573.31;;;3.99;85.04
29569;BME280;16501;51.462;14.346;2023-04-27T05:33:58;100572.44;;;4.02;85.18
29569;BME280;16501;51.462;14.346;2023-04-27T05:36:23;100574.03;;;4.03;84.83
29569;BME280;16501;51.462;14.346;2023-04-27T05:38:49;100568.53;;;4.00;84.59
29569;BME280;16501;51.462;14.346;2023-04-27T05:41:14;100588.94;;;4.13;85.26
29569;BME280;16501;51.462;14.346;2023-04-27T05:43:39;100554.28;;;3.97;85.40
29569;BME280;16501;51.462;14.346;2023-04-27T05:46:05;100578.69;;;4.10;84.97
29569;BME280;16501;51.462;14.346;2023-04-27T05:48:30;100576.63;;;4.14;84.07
29569;BME280;16501;51.462;14.346;2023-04-27T05:51:02;100587.31;;;4.15;84.29
29569;BME280;16501;51.462;14.346;2023-04-27T05:53:31;100576.75;;;4.07;84.44
29569;BME280;16501;51.462;14.346;2023-04-27T05:55:57;100584.88;;;4.18;84.32
29569;BME280;16501;51.462;14.346;2023-04-27T05:58:23;100573.50;;;4.12;83.82
29569;BME280;16501;51.462;14.346;2023-04-27T06:00:48;100583.63;;;4.22;84.04
29569;BME280;16501;51.462;14.346;2023-04-27T06:03:14;100584.84;;;4.21;84.01
29569;BME280;16501;51.462;14.346;2023-04-27T06:05:39;100575.78;;;4.17;84.25
29569;BME280;16501;51.462;14.346;2023-04-27T06:08:05;100567.34;;;4.24;84.20
29569;BME280;16501;51.462;14.346;2023-04-27T06:10:31;100574.47;;;4.25;83.71
29569;BME280;16501;51.462;14.346;2023-04-27T06:12:56;100587.50;;;4.28;84.40
29569;BME280;16501;51.462;14.346;2023-04-27T06:15:21;100563.59;;;4.34;84.05
29569;BME280;16501;51.462;14.346;2023-04-27T06:17:46;100579.47;;;4.58;84.30
29569;BME280;16501;51.462;14.346;2023-04-27T06:20:12;100577.84;;;4.60;84.06
29569;BME280;16501;51.462;14.346;2023-04-27T06:22:37;100584.09;;;4.64;83.68
29569;BME280;16501;51.462;14.346;2023-04-27T06:25:06;100583.34;;;4.64;83.59
29569;BME280;16501;51.462;14.346;2023-04-27T06:27:33;100569.50;;;4.60;83.18
29569;BME280;16501;51.462;14.346;2023-04-27T06:29:58;100592.19;;;4.79;83.47
29569;BME280;16501;51.462;14.346;2023-04-27T06:32:23;100587.66;;;4.88;83.23
29569;BME280;16501;51.462;14.346;2023-04-27T06:34:49;100590.72;;;4.94;84.16
29569;BME280;16501;51.462;14.346;2023-04-27T06:37:15;100587.38;;;5.03;83.98
29569;BME280;16501;51.462;14.346;2023-04-27T06:39:42;100588.03;;;5.10;82.44
29569;BME280;16501;51.462;14.346;2023-04-27T06:42:08;100588.66;;;5.18;82.50
29569;BME280;16501;51.462;14.346;2023-04-27T06:44:33;100589.66;;;5.28;81.70
29569;BME280;16501;51.462;14.346;2023-04-27T06:46:58;100583.31;;;5.27;82.51
29569;BME280;16501;51.462;14.346;2023-04-27T06:49:24;100580.81;;;5.33;81.99
29569;BME280;16501;51.462;14.346;2023-04-27T06:51:49;100581.72;;;5.46;81.23
29569;BME280;16501;51.462;14.346;2023-04-27T06:54:14;100602.09;;;5.60;82.43
29569;BME280;16501;51.462;14.346;2023-04-27T06:56:40;100587.13;;;5.54;80.70
29569;BME280;16501;51.462;14.346;2023-04-27T06:59:06;100602.81;;;5.64;80.41
29569;BME280;16501;51.462;14.346;2023-04-27T07:01:32;100594.63;;;5.57;80.80
29569;BME280;16501;51.462;14.346;2023-04-27T07:03:57;100600.41;;;5.66;80.00
29569;BME280;16501;51.462;14.346;2023-04-27T07:06:22;100589.28;;;5.66;79.66
29569;BME280;16501;51.462;14.346;2023-04-27T07:08:49;100600.94;;;5.77;79.91
29569;BME280;16501;51.462;14.346;2023-04-27T07:11:15;100600.78;;;5.84;79.02
29569;BME280;16501;51.462;14.346;2023-04-27T07:13:40;100596.78;;;5.85;79.79
29569;BME280;16501;51.462;14.346;2023-04-27T07:16:06;100608.31;;;6.04;78.75
29569;BME280;16501;51.462;14.346;2023-04-27T07:18:31;100593.00;;;5.96;78.08
29569;BME280;16501;51.462;14.346;2023-04-27T07:20:56;100600.25;;;6.10;77.33
29569;BME280;16501;51.462;14.346;2023-04-27T07:23:22;100607.34;;;6.11;75.43
29569;BME280;16501;51.462;14.346;2023-04-27T07:25:47;100606.75;;;6.19;74.61
29569;BME280;16501;51.462;14.346;2023-04-27T07:28:13;100612.50;;;6.29;74.31
29569;BME280;16501;51.462;14.346;2023-04-27T07:30:39;100602.06;;;6.33;75.01
29569;BME280;16501;51.462;14.346;2023-04-27T07:33:05;100600.84;;;6.34;76.22
29569;BME280;16501;51.462;14.346;2023-04-27T07:35:31;100597.38;;;6.30;72.86
29569;BME280;16501;51.462;14.346;2023-04-27T07:37:56;100609.63;;;6.49;76.79
29569;BME280;16501;51.462;14.346;2023-04-27T07:40:21;100604.31;;;6.54;75.01
29569;BME280;16501;51.462;14.346;2023-04-27T07:42:48;100615.44;;;6.71;74.07
29569;BME280;16501;51.462;14.346;2023-04-27T07:45:13;100600.81;;;6.67;73.12
29569;BME280;16501;51.462;14.346;2023-04-27T07:47:39;100606.66;;;6.72;71.82
29569;BME280;16501;51.462;14.346;2023-04-27T07:50:07;100614.88;;;6.92;71.47
29569;BME280;16501;51.462;14.346;2023-04-27T07:52:33;100600.00;;;6.83;70.35
29569;BME280;16501;51.462;14.346;2023-04-27T07:54:58;100606.31;;;6.99;71.46
29569;BME280;16501;51.462;14.346;2023-04-27T07:57:23;100617.06;;;7.14;71.49
29569;BME280;16501;51.462;14.346;2023-04-27T07:59:48;100619.59;;;7.25;71.67
29569;BME280;16501;51.462;14.346;2023-04-27T08:02:19;100595.38;;;7.22;73.06
29569;BME280;16501;51.462;14.346;2023-04-27T08:04:44;100608.34;;;7.28;70.20
29569;BME280;16501;51.462;14.346;2023-04-27T08:07:10;100620.56;;;7.47;69.27
29569;BME280;16501;51.462;14.346;2023-04-27T08:09:35;100628.38;;;7.52;70.98
29569;BME280;16501;51.462;14.346;2023-04-27T08:12:01;100620.19;;;7.45;68.09
29569;BME280;16501;51.462;14.346;2023-04-27T08:14:27;100622.09;;;7.48;66.41
29569;BME280;16501;51.462;14.346;2023-04-27T08:16:52;100622.88;;;7.49;66.11
29569;BME280;16501;51.462;14.346;2023-04-27T08:19:17;100622.88;;;7.49;65.19
29569;BME280;16501;51.462;14.346;2023-04-27T08:21:42;100621.66;;;7.50;64.89
29569;BME280;16501;51.462;14.346;2023-04-27T08:24:08;100619.19;;;7.52;64.36
29569;BME280;16501;51.462;14.346;2023-04-27T08:26:33;100616.31;;;7.55;63.83
29569;BME280;16501;51.462;14.346;2023-04-27T08:28:59;100614.53;;;7.62;63.81
29569;BME280;16501;51.462;14.346;2023-04-27T08:31:25;100632.31;;;7.81;63.42
29569;BME280;16501;51.462;14.346;2023-04-27T08:33:53;100625.19;;;7.92;63.26
29569;BME280;16501;51.462;14.346;2023-04-27T08:36:21;100636.91;;;8.13;65.06
29569;BME280;16501;51.462;14.346;2023-04-27T08:38:50;100638.69;;;8.20;61.56
29569;BME280;16501;51.462;14.346;2023-04-27T08:41:23;100619.59;;;8.31;64.07
29569;BME280;16501;51.462;14.346;2023-04-27T08:43:48;100630.53;;;8.38;63.56
29569;BME280;16501;51.462;14.346;2023-04-27T08:46:21;100636.34;;;8.57;64.91
29569;BME280;16501;51.462;14.346;2023-04-27T08:48:54;100621.34;;;8.63;60.38
29569;BME280;16501;51.462;14.346;2023-04-27T08:51:20;100621.34;;;8.63;59.87
29569;BME280;16501;51.462;14.346;2023-04-27T08:53:55;100623.22;;;8.79;61.67
29569;BME280;16501;51.462;14.346;2023-04-27T08:56:22;100584.00;;;8.70;65.68
29569;BME280;16501;51.462;14.346;2023-04-27T08:58:51;100626.44;;;8.91;63.50
29569;BME280;16501;51.462;14.346;2023-04-27T09:01:17;100612.19;;;8.63;61.08
29569;BME280;16501;51.462;14.346;2023-04-27T09:03:42;100606.53;;;8.54;60.16
29569;BME280;16501;51.462;14.346;2023-04-27T09:06:11;100618.91;;;8.40;60.36
29569;BME280;16501;51.462;14.346;2023-04-27T09:08:49;100623.72;;;8.39;62.77
29569;BME280;16501;51.462;14.346;2023-04-27T09:11:27;100622.84;;;8.42;62.53
29569;BME280;16501;51.462;14.346;2023-04-27T09:13:53;100619.28;;;8.29;62.96
29569;BME280;16501;51.462;14.346;2023-04-27T09:16:23;100624.94;;;8.38;63.14
29569;BME280;16501;51.462;14.346;2023-04-27T09:18:49;100616.13;;;8.27;63.02
29569;BME280;16501;51.462;14.346;2023-04-27T09:21:28;100606.97;;;8.26;62.87
29569;BME280;16501;51.462;14.346;2023-04-27T09:23:54;100617.94;;;8.46;61.66
29569;BME280;16501;51.462;14.346;2023-04-27T09:26:22;100605.28;;;8.42;61.93
29569;BME280;16501;51.462;14.346;2023-04-27T09:28:52;100613.66;;;8.55;60.74
29569;BME280;16501;51.462;14.346;2023-04-27T09:31:18;100614.34;;;8.59;59.61
29569;BME280;16501;51.462;14.346;2023-04-27T09:33:44;100593.31;;;8.41;57.63
29569;BME280;16501;51.462;14.346;2023-04-27T09:36:10;100620.50;;;8.54;59.03
29569;BME280;16501;51.462;14.346;2023-04-27T09:38:35;100610.88;;;8.42;59.07
29569;BME280;16501;51.462;14.346;2023-04-27T09:41:01;100623.97;;;8.45;59.41
29569;BME280;16501;51.462;14.346;2023-04-27T09:43:28;100617.34;;;8.39;59.69
29569;BME280;16501;51.462;14.346;2023-04-27T09:45:54;100612.31;;;8.34;61.04
29569;BME280;16501;51.462;14.346;2023-04-27T09:48:21;100624.06;;;8.41;59.10
29569;BME280;16501;51.462;14.346;2023-04-27T09:50:48;100622.03;;;8.42;59.89
29569;BME280;16501;51.462;14.346;2023-04-27T09:53:17;100615.44;;;8.36;59.34
29569;BME280;16501;51.462;14.346;2023-04-27T10:01:46;100615.75;;;8.63;61.19
29569;BME280;16501;51.462;14.346;2023-04-27T10:07:10;100611.03;;;8.73;59.30
29569;BME280;16501;51.462;14.346;2023-04-27T10:09:41;100607.47;;;8.73;60.60
29569;BME280;16501;51.462;14.346;2023-04-27T10:12:25;100608.81;;;8.68;60.42
29569;BME280;16501;51.462;14.346;2023-04-27T10:14:59;100609.47;;;8.72;61.52
29569;BME280;16501;51.462;14.346;2023-04-27T10:17:32;100598.28;;;8.72;59.09
29569;BME280;16501;51.462;14.346;2023-04-27T10:20:05;100595.16;;;8.70;61.84
29569;BME280;16501;51.462;14.346;2023-04-27T10:22:43;100605.34;;;8.77;60.03
29569;BME280;16501;51.462;14.346;2023-04-27T10:25:17;100599.53;;;8.71;60.72
29569;BME280;16501;51.462;14.346;2023-04-27T10:27:47;100595.28;;;8.66;60.53
29569;BME280;16501;51.462;14.346;2023-04-27T10:30:16;100608.38;;;8.70;57.87
29569;BME280;16501;51.462;14.346;2023-04-27T10:32:56;100615.88;;;8.60;58.03
29569;BME280;16501;51.462;14.346;2023-04-27T10:35:42;100613.97;;;8.57;57.56
29569;BME280;16501;51.462;14.346;2023-04-27T10:38:19;100614.09;;;8.66;58.37
29569;BME280;16501;51.462;14.346;2023-04-27T10:40:54;100594.53;;;8.66;57.58
29569;BME280;16501;51.462;14.346;2023-04-27T10:43:24;100611.81;;;8.86;58.79
29569;BME280;16501;51.462;14.346;2023-04-27T10:45:50;100592.88;;;8.91;58.35
29569;BME280;16501;51.462;14.346;2023-04-27T10:48:15;100578.88;;;8.91;58.05
29569;BME280;16501;51.462;14.346;2023-04-27T10:50:40;100610.63;;;8.97;57.19
29569;BME280;16501;51.462;14.346;2023-04-27T10:53:07;100606.66;;;9.07;57.71
29569;BME280;16501;51.462;14.346;2023-04-27T10:55:33;100605.75;;;9.10;57.31
29569;BME280;16501;51.462;14.346;2023-04-27T10:57:59;100606.09;;;9.12;55.63
29569;BME280;16501;51.462;14.346;2023-04-27T11:00:27;100596.16;;;9.11;55.69
29569;BME280;16501;51.462;14.346;2023-04-27T11:02:54;100605.59;;;9.27;55.94
29569;BME280;16501;51.462;14.346;2023-04-27T11:05:24;100600.44;;;9.25;51.59
29569;BME280;16501;51.462;14.346;2023-04-27T11:08:03;100609.66;;;9.35;51.72
29569;BME280;16501;51.462;14.346;2023-04-27T11:10:29;100591.50;;;9.39;52.48
29569;BME280;16501;51.462;14.346;2023-04-27T11:12:55;100607.59;;;9.48;51.83
29569;BME280;16501;51.462;14.346;2023-04-27T11:15:21;100595.16;;;9.49;51.74
29569;BME280;16501;51.462;14.346;2023-04-27T11:17:46;100583.75;;;9.43;52.52
29569;BME280;16501;51.462;14.346;2023-04-27T11:20:11;100608.28;;;9.61;53.22
29569;BME280;16501;51.462;14.346;2023-04-27T11:22:44;100586.09;;;9.45;55.95
29569;BME280;16501;51.462;14.346;2023-04-27T11:25:12;100606.69;;;9.51;56.42
29569;BME280;16501;51.462;14.346;2023-04-27T11:27:40;100621.44;;;9.52;55.55
29569;BME280;16501;51.462;14.346;2023-04-27T11:30:18;100616.56;;;9.43;54.91
29569;BME280;16501;51.462;14.346;2023-04-27T11:32:44;100601.84;;;9.30;54.11
29569;BME280;16501;51.462;14.346;2023-04-27T11:35:10;100620.28;;;9.40;52.17
29569;BME280;16501;51.462;14.346;2023-04-27T11:37:35;100620.94;;;9.44;52.39
29569;BME280;16501;51.462;14.346;2023-04-27T11:40:01;100618.97;;;9.54;54.09
29569;BME280;16501;51.462;14.346;2023-04-27T11:42:27;100625.34;;;9.54;53.27
29569;BME280;16501;51.462;14.346;2023-04-27T11:45:04;100619.75;;;9.54;51.66
29569;BME280;16501;51.462;14.346;2023-04-27T11:47:31;100616.63;;;9.52;52.06
29569;BME280;16501;51.462;14.346;2023-04-27T11:49:59;100628.34;;;9.60;52.47
29569;BME280;16501;51.462;14.346;2023-04-27T11:52:29;100630.88;;;9.45;49.93
29569;BME280;16501;51.462;14.346;2023-04-27T11:54:56;100617.41;;;9.31;52.79
29569;BME280;16501;51.462;14.346;2023-04-27T11:57:25;100623.97;;;9.37;53.51
29569;BME280;16501;51.462;14.346;2023-04-27T11:59:52;100609.78;;;9.53;55.54
29569;BME280;16501;51.462;14.346;2023-04-27T12:02:18;100623.19;;;9.80;55.83
29569;BME280;16501;51.462;14.346;2023-04-27T12:04:44;100604.97;;;9.85;55.31
29569;BME280;16501;51.462;14.346;2023-04-27T12:07:09;100606.13;;;9.97;51.14
29569;BME280;16501;51.462;14.346;2023-04-27T12:09:36;100611.63;;;10.10;51.98
29569;BME280;16501;51.462;14.346;2023-04-27T12:12:01;100616.41;;;10.31;52.04
29569;BME280;16501;51.462;14.346;2023-04-27T12:14:27;100618.00;;;10.42;53.01
29569;BME280;16501;51.462;14.346;2023-04-27T12:16:52;100623.94;;;10.62;52.00
29569;BME280;16501;51.462;14.346;2023-04-27T12:19:19;100625.03;;;10.65;51.38
29569;BME280;16501;51.462;14.346;2023-04-27T12:21:44;100632.31;;;10.44;49.35
29569;BME280;16501;51.462;14.346;2023-04-27T12:24:10;100621.66;;;10.29;50.24
29569;BME280;16501;51.462;14.346;2023-04-27T12:26:36;100621.28;;;10.09;52.21
29569;BME280;16501;51.462;14.346;2023-04-27T12:29:03;100618.19;;;10.16;50.71
29569;BME280;16501;51.462;14.346;2023-04-27T12:31:28;100612.56;;;10.07;51.15
29569;BME280;16501;51.462;14.346;2023-04-27T12:33:55;100619.09;;;10.13;51.43
29569;BME280;16501;51.462;14.346;2023-04-27T12:36:20;100619.25;;;10.09;50.28
29569;BME280;16501;51.462;14.346;2023-04-27T12:38:45;100615.53;;;10.12;52.16
29569;BME280;16501;51.462;14.346;2023-04-27T12:41:11;100616.66;;;10.24;51.34
29569;BME280;16501;51.462;14.346;2023-04-27T12:43:36;100617.28;;;10.28;50.40
29569;BME280;16501;51.462;14.346;2023-04-27T12:46:02;100619.88;;;10.13;49.61
29569;BME280;16501;51.462;14.346;2023-04-27T12:48:27;100597.09;;;9.93;50.70
29569;BME280;16501;51.462;14.346;2023-04-27T12:50:53;100607.47;;;9.83;49.92
29569;BME280;16501;51.462;14.346;2023-04-27T12:53:18;100625.25;;;9.89;52.25
29569;BME280;16501;51.462;14.346;2023-04-27T12:55:43;100615.56;;;9.81;52.25